sensor_id;sensor_type;location;lat;lon;timestamp;P1;durP1;ratioP1;P2;durP2;ratioP2
35909;SDS011;22004;49.120;-0.200;2023-05-21T00:01:36;14.68;;;4.20;;
35909;SDS011;22004;49.120;-0.200;2023-05-21T00:04:03;13.77;;;4.18;;
35909;SDS011;22004;49.120;-0.200;2023-05-21T00:06:30;19.75;;;4.40;;
35909;SDS011;22004;49.120;-0.200;2023-05-21T00:08:56;14.57;;;3.97;;
35909;SDS011;22004;49.120;-0.200;2023-05-21T00:11:21;13.80;;;4.10;;
35909;SDS011;22004;49.120;-0.200;2023-05-21T00:13:48;14.75;;;3.92;;
35909;SDS011;22004;49.120;-0.200;2023-05-21T00:16:13;12.45;;;3.90;;
35909;SDS011;22004;49.120;-0.200;2023-05-21T00:18:38;12.90;;;3.80;;
35909;SDS011;22004;49.120;-0.200;2023-05-21T00:21:04;13.68;;;4.25;;
35909;SDS011;22004;49.120;-0.200;2023-05-21T00:23:29;10.68;;;3.72;;
35909;SDS011;22004;49.120;-0.200;2023-05-21T00:25:57;14.68;;;3.63;;
35909;SDS011;22004;49.120;-0.200;2023-05-21T00:28:23;13.30;;;3.95;;
35909;SDS011;22004;49.120;-0.200;2023-05-21T00:30:48;14.32;;;3.53;;
35909;SDS011;22004;49.120;-0.200;2023-05-21T00:33:14;16.92;;;3.97;;
35909;SDS011;22004;49.120;-0.200;2023-05-21T00:35:39;15.30;;;3.92;;
35909;SDS011;22004;49.120;-0.200;2023-05-21T00:38:05;14.93;;;3.83;;
35909;SDS011;22004;49.120;-0.200;2023-05-21T00:40:31;14.23;;;3.90;;
35909;SDS011;22004;49.120;-0.200;2023-05-21T00:42:57;15.38;;;4.70;;
35909;SDS011;22004;49.120;-0.200;2023-05-21T00:45:22;20.10;;;3.83;;
35909;SDS011;22004;49.120;-0.200;2023-05-21T00:47:49;17.35;;;4.97;;
35909;SDS011;22004;49.120;-0.200;2023-05-21T00:50:18;12.38;;;3.92;;
35909;SDS011;22004;49.120;-0.200;2023-05-21T00:52:44;17.42;;;3.83;;
35909;SDS011;22004;49.120;-0.200;2023-05-21T00:55:10;17.25;;;3.92;;
35909;SDS011;22004;49.120;-0.200;2023-05-21T00:57:36;14.50;;;4.10;;
35909;SDS011;22004;49.120;-0.200;2023-05-21T01:00:02;16.70;;;4.50;;
35909;SDS011;22004;49.120;-0.200;2023-05-21T01:02:31;20.25;;;5.13;;
35909;SDS011;22004;49.120;-0.200;2023-05-21T01:04:58;18.70;;;3.67;;
35909;SDS011;22004;49.120;-0.200;2023-05-21T01:07:24;13.73;;;3.92;;
35909;SDS011;22004;49.120;-0.200;2023-05-21T01:09:50;14.57;;;3.90;;
35909;SDS011;22004;49.120;-0.200;2023-05-21T01:12:15;18.50;;;4.35;;
35909;SDS011;22004;49.120;-0.200;2023-05-21T01:14:42;16.90;;;3.80;;
35909;SDS011;22004;49.120;-0.200;2023-05-21T01:17:08;18.25;;;4.10;;
35909;SDS011;22004;49.120;-0.200;2023-05-21T01:19:35;14.30;;;3.67;;
35909;SDS011;22004;49.120;-0.200;2023-05-21T01:22:04;18.60;;;4.10;;
35909;SDS011;22004;49.120;-0.200;2023-05-21T01:24:31;14.10;;;3.97;;
35909;SDS011;22004;49.120;-0.200;2023-05-21T01:26:57;19.67;;;4.15;;
35909;SDS011;22004;49.120;-0.200;2023-05-21T01:29:23;24.92;;;5.88;;
35909;SDS011;22004;49.120;-0.200;2023-05-21T01:32:01;16.85;;;4.85;;
35909;SDS011;22004;49.120;-0.200;2023-05-21T01:40:07;17.83;;;4.25;;
35909;SDS011;22004;49.120;-0.200;2023-05-21T01:42:37;18.95;;;3.65;;
35909;SDS011;22004;49.120;-0.200;2023-05-21T01:45:06;18.30;;;3.85;;
35909;SDS011;22004;49.120;-0.200;2023-05-21T01:47:32;15.55;;;4.38;;
35909;SDS011;22004;49.120;-0.200;2023-05-21T01:50:00;21.52;;;4.45;;
35909;SDS011;22004;49.120;-0.200;2023-05-21T01:52:27;18.55;;;4.70;;
35909;SDS011;22004;49.120;-0.200;2023-05-21T01:54:54;22.55;;;4.85;;
35909;SDS011;22004;49.120;-0.200;2023-05-21T01:57:24;16.90;;;4.13;;
35909;SDS011;22004;49.120;-0.200;2023-05-21T01:59:49;14.00;;;3.65;;
35909;SDS011;22004;49.120;-0.200;2023-05-21T02:02:17;22.17;;;4.70;;
35909;SDS011;22004;49.120;-0.200;2023-05-21T02:04:42;21.35;;;4.68;;
35909;SDS011;22004;49.120;-0.200;2023-05-21T02:07:09;19.38;;;4.60;;
35909;SDS011;22004;49.120;-0.200;2023-05-21T02:09:35;23.13;;;5.38;;
35909;SDS011;22004;49.120;-0.200;2023-05-21T02:12:01;19.00;;;5.25;;
35909;SDS011;22004;49.120;-0.200;2023-05-21T02:14:27;16.95;;;4.93;;
35909;SDS011;22004;49.120;-0.200;2023-05-21T02:16:53;25.90;;;5.53;;
35909;SDS011;22004;49.120;-0.200;2023-05-21T02:19:19;18.75;;;4.50;;
35909;SDS011;22004;49.120;-0.200;2023-05-21T02:21:44;11.10;;;4.25;;
35909;SDS011;22004;49.120;-0.200;2023-05-21T02:24:09;18.73;;;5.22;;
35909;SDS011;22004;49.120;-0.200;2023-05-21T02:26:35;25.60;;;6.40;;
35909;SDS011;22004;49.120;-0.200;2023-05-21T02:29:02;17.17;;;4.70;;
35909;SDS011;22004;49.120;-0.200;2023-05-21T02:31:27;15.25;;;4.38;;
35909;SDS011;22004;49.120;-0.200;2023-05-21T02:33:53;23.42;;;6.72;;
35909;SDS011;22004;49.120;-0.200;2023-05-21T02:36:18;20.90;;;4.88;;
35909;SDS011;22004;49.120;-0.200;2023-05-21T02:38:44;19.77;;;6.45;;
35909;SDS011;22004;49.120;-0.200;2023-05-21T02:41:10;26.00;;;7.45;;
35909;SDS011;22004;49.120;-0.200;2023-05-21T02:43:36;39.65;;;9.00;;
35909;SDS011;22004;49.120;-0.200;2023-05-21T02:46:01;31.63;;;7.55;;
35909;SDS011;22004;49.120;-0.200;2023-05-21T02:48:28;20.50;;;5.72;;
35909;SDS011;22004;49.120;-0.200;2023-05-21T02:50:54;24.38;;;7.30;;
35909;SDS011;22004;49.120;-0.200;2023-05-21T02:53:19;22.35;;;7.43;;
35909;SDS011;22004;49.120;-0.200;2023-05-21T02:55:44;22.02;;;6.47;;
35909;SDS011;22004;49.120;-0.200;2023-05-21T02:58:10;20.42;;;7.38;;
35909;SDS011;22004;49.120;-0.200;2023-05-21T03:00:37;36.17;;;10.85;;
35909;SDS011;22004;49.120;-0.200;2023-05-21T03:03:02;20.77;;;6.85;;
35909;SDS011;22004;49.120;-0.200;2023-05-21T03:05:28;24.75;;;8.55;;
35909;SDS011;22004;49.120;-0.200;2023-05-21T03:07:53;18.38;;;6.68;;
35909;SDS011;22004;49.120;-0.200;2023-05-21T03:10:19;20.73;;;6.97;;
35909;SDS011;22004;49.120;-0.200;2023-05-21T03:12:44;22.10;;;7.68;;
35909;SDS011;22004;49.120;-0.200;2023-05-21T03:15:09;26.40;;;7.93;;
35909;SDS011;22004;49.120;-0.200;2023-05-21T03:17:38;39.83;;;9.65;;
35909;SDS011;22004;49.120;-0.200;2023-05-21T03:20:04;20.88;;;7.00;;
35909;SDS011;22004;49.120;-0.200;2023-05-21T03:22:30;21.25;;;7.22;;
35909;SDS011;22004;49.120;-0.200;2023-05-21T03:24:55;22.83;;;7.00;;
35909;SDS011;22004;49.120;-0.200;2023-05-21T03:27:22;23.85;;;7.18;;
35909;SDS011;22004;49.120;-0.200;2023-05-21T03:29:47;19.77;;;6.68;;
35909;SDS011;22004;49.120;-0.200;2023-05-21T03:32:12;26.50;;;7.80;;
35909;SDS011;22004;49.120;-0.200;2023-05-21T03:34:38;19.83;;;6.70;;
35909;SDS011;22004;49.120;-0.200;2023-05-21T03:37:03;22.67;;;6.50;;
35909;SDS011;22004;49.120;-0.200;2023-05-21T03:39:29;19.85;;;6.88;;
35909;SDS011;22004;49.120;-0.200;2023-05-21T03:41:54;22.17;;;6.85;;
35909;SDS011;22004;49.120;-0.200;2023-05-21T03:44:19;34.10;;;9.32;;
35909;SDS011;22004;49.120;-0.200;2023-05-21T03:46:45;16.65;;;6.90;;
35909;SDS011;22004;49.120;-0.200;2023-05-21T03:49:10;22.17;;;7.10;;
35909;SDS011;22004;49.120;-0.200;2023-05-21T03:51:35;30.15;;;8.85;;
35909;SDS011;22004;49.120;-0.200;2023-05-21T03:54:02;25.25;;;8.48;;
35909;SDS011;22004;49.120;-0.200;2023-05-21T03:56:27;20.42;;;7.78;;
35909;SDS011;22004;49.120;-0.200;2023-05-21T03:58:53;42.35;;;14.40;;
35909;SDS011;22004;49.120;-0.200;2023-05-21T04:01:18;37.17;;;11.63;;
35909;SDS011;22004;49.120;-0.200;2023-05-21T04:03:43;25.77;;;7.97;;
35909;SDS011;22004;49.120;-0.200;2023-05-21T04:06:09;28.73;;;9.70;;
35909;SDS011;22004;49.120;-0.200;2023-05-21T04:08:34;15.35;;;6.68;;
35909;SDS011;22004;49.120;-0.200;2023-05-21T04:11:01;21.25;;;7.72;;
35909;SDS011;22004;49.120;-0.200;2023-05-21T04:13:27;20.30;;;7.88;;
35909;SDS011;22004;49.120;-0.200;2023-05-21T04:15:52;19.33;;;6.72;;
35909;SDS011;22004;49.120;-0.200;2023-05-21T04:18:18;23.23;;;7.97;;
35909;SDS011;22004;49.120;-0.200;2023-05-21T04:20:44;17.27;;;7.40;;
35909;SDS011;22004;49.120;-0.200;2023-05-21T04:23:10;34.63;;;10.80;;
35909;SDS011;22004;49.120;-0.200;2023-05-21T04:25:35;24.60;;;9.60;;
35909;SDS011;22004;49.120;-0.200;2023-05-21T04:28:03;19.13;;;7.30;;
35909;SDS011;22004;49.120;-0.200;2023-05-21T04:30:28;26.55;;;8.43;;
35909;SDS011;22004;49.120;-0.200;2023-05-21T04:32:54;21.67;;;7.50;;
35909;SDS011;22004;49.120;-0.200;2023-05-21T04:35:19;23.40;;;8.27;;
35909;SDS011;22004;49.120;-0.200;2023-05-21T04:37:45;24.40;;;8.52;;
35909;SDS011;22004;49.120;-0.200;2023-05-21T04:40:11;26.13;;;8.73;;
35909;SDS011;22004;49.120;-0.200;2023-05-21T04:42:42;28.88;;;9.27;;
35909;SDS011;22004;49.120;-0.200;2023-05-21T04:45:10;17.92;;;7.28;;
35909;SDS011;22004;49.120;-0.200;2023-05-21T04:47:36;20.73;;;8.35;;
35909;SDS011;22004;49.120;-0.200;2023-05-21T04:50:02;32.08;;;10.73;;
35909;SDS011;22004;49.120;-0.200;2023-05-21T04:52:28;20.77;;;8.27;;
35909;SDS011;22004;49.120;-0.200;2023-05-21T04:54:54;22.73;;;8.50;;
35909;SDS011;22004;49.120;-0.200;2023-05-21T04:57:20;26.77;;;9.10;;
35909;SDS011;22004;49.120;-0.200;2023-05-21T04:59:45;30.33;;;11.68;;
35909;SDS011;22004;49.120;-0.200;2023-05-21T05:02:11;20.05;;;7.85;;
35909;SDS011;22004;49.120;-0.200;2023-05-21T05:04:37;22.75;;;8.10;;
35909;SDS011;22004;49.120;-0.200;2023-05-21T05:07:02;24.48;;;9.40;;
35909;SDS011;22004;49.120;-0.200;2023-05-21T05:09:27;22.13;;;7.55;;
35909;SDS011;22004;49.120;-0.200;2023-05-21T05:11:54;24.48;;;7.85;;
35909;SDS011;22004;49.120;-0.200;2023-05-21T05:14:19;29.75;;;10.52;;
35909;SDS011;22004;49.120;-0.200;2023-05-21T05:16:45;21.80;;;8.23;;
35909;SDS011;22004;49.120;-0.200;2023-05-21T05:19:12;25.70;;;11.25;;
35909;SDS011;22004;49.120;-0.200;2023-05-21T05:21:37;33.60;;;12.57;;
35909;SDS011;22004;49.120;-0.200;2023-05-21T05:24:03;22.73;;;8.65;;
35909;SDS011;22004;49.120;-0.200;2023-05-21T05:26:29;27.60;;;11.10;;
35909;SDS011;22004;49.120;-0.200;2023-05-21T05:28:54;27.02;;;11.40;;
35909;SDS011;22004;49.120;-0.200;2023-05-21T05:31:19;31.73;;;13.82;;
35909;SDS011;22004;49.120;-0.200;2023-05-21T05:33:45;19.80;;;9.65;;
35909;SDS011;22004;49.120;-0.200;2023-05-21T05:36:11;23.10;;;10.43;;
35909;SDS011;22004;49.120;-0.200;2023-05-21T05:38:36;38.40;;;18.20;;
35909;SDS011;22004;49.120;-0.200;2023-05-21T05:41:01;25.33;;;12.80;;
35909;SDS011;22004;49.120;-0.200;2023-05-21T05:43:27;26.70;;;12.77;;
35909;SDS011;22004;49.120;-0.200;2023-05-21T05:45:52;29.70;;;13.50;;
35909;SDS011;22004;49.120;-0.200;2023-05-21T05:48:18;42.20;;;20.60;;
35909;SDS011;22004;49.120;-0.200;2023-05-21T05:50:44;43.35;;;20.40;;
35909;SDS011;22004;49.120;-0.200;2023-05-21T05:53:09;32.00;;;16.15;;
35909;SDS011;22004;49.120;-0.200;2023-05-21T05:55:37;37.50;;;17.27;;
35909;SDS011;22004;49.120;-0.200;2023-05-21T05:58:03;31.52;;;15.20;;
35909;SDS011;22004;49.120;-0.200;2023-05-21T06:00:28;41.22;;;19.58;;
35909;SDS011;22004;49.120;-0.200;2023-05-21T06:02:53;44.60;;;25.85;;
35909;SDS011;22004;49.120;-0.200;2023-05-21T06:05:19;64.15;;;31.58;;
35909;SDS011;22004;49.120;-0.200;2023-05-21T06:07:44;31.38;;;16.50;;
35909;SDS011;22004;49.120;-0.200;2023-05-21T06:10:09;30.80;;;15.75;;
35909;SDS011;22004;49.120;-0.200;2023-05-21T06:12:35;77.85;;;39.10;;
35909;SDS011;22004;49.120;-0.200;2023-05-21T06:15:00;45.67;;;20.35;;
35909;SDS011;22004;49.120;-0.200;2023-05-21T06:17:26;50.38;;;26.80;;
35909;SDS011;22004;49.120;-0.200;2023-05-21T06:19:51;45.67;;;24.25;;
35909;SDS011;22004;49.120;-0.200;2023-05-21T06:22:16;36.15;;;19.38;;
35909;SDS011;22004;49.120;-0.200;2023-05-21T06:24:42;36.08;;;19.77;;
35909;SDS011;22004;49.120;-0.200;2023-05-21T06:27:07;35.88;;;19.60;;
35909;SDS011;22004;49.120;-0.200;2023-05-21T06:29:32;43.63;;;23.10;;
35909;SDS011;22004;49.120;-0.200;2023-05-21T06:31:58;53.30;;;29.67;;
35909;SDS011;22004;49.120;-0.200;2023-05-21T06:34:23;32.83;;;19.88;;
35909;SDS011;22004;49.120;-0.200;2023-05-21T06:36:49;37.28;;;22.35;;
35909;SDS011;22004;49.120;-0.200;2023-05-21T06:39:15;46.10;;;25.38;;
35909;SDS011;22004;49.120;-0.200;2023-05-21T06:41:40;44.30;;;24.55;;
35909;SDS011;22004;49.120;-0.200;2023-05-21T06:44:06;42.22;;;23.20;;
35909;SDS011;22004;49.120;-0.200;2023-05-21T06:46:31;37.00;;;21.17;;
35909;SDS011;22004;49.120;-0.200;2023-05-21T06:48:56;46.33;;;25.65;;
35909;SDS011;22004;49.120;-0.200;2023-05-21T06:51:22;64.78;;;31.65;;
35909;SDS011;22004;49.120;-0.200;2023-05-21T06:53:47;84.38;;;48.15;;
35909;SDS011;22004;49.120;-0.200;2023-05-21T06:56:13;46.88;;;28.60;;
35909;SDS011;22004;49.120;-0.200;2023-05-21T06:58:38;53.45;;;28.17;;
35909;SDS011;22004;49.120;-0.200;2023-05-21T07:01:03;41.30;;;25.45;;
35909;SDS011;22004;49.120;-0.200;2023-05-21T07:03:29;73.30;;;43.40;;
35909;SDS011;22004;49.120;-0.200;2023-05-21T07:05:56;57.38;;;30.77;;
35909;SDS011;22004;49.120;-0.200;2023-05-21T07:08:21;56.00;;;31.70;;
35909;SDS011;22004;49.120;-0.200;2023-05-21T07:10:47;44.65;;;27.67;;
35909;SDS011;22004;49.120;-0.200;2023-05-21T07:13:13;53.80;;;30.25;;
35909;SDS011;22004;49.120;-0.200;2023-05-21T07:15:39;48.65;;;27.58;;
35909;SDS011;22004;49.120;-0.200;2023-05-21T07:18:05;46.10;;;26.80;;
35909;SDS011;22004;49.120;-0.200;2023-05-21T07:20:30;54.80;;;30.58;;
35909;SDS011;22004;49.120;-0.200;2023-05-21T07:22:56;56.50;;;32.47;;
35909;SDS011;22004;49.120;-0.200;2023-05-21T07:25:21;72.80;;;41.25;;
35909;SDS011;22004;49.120;-0.200;2023-05-21T07:27:47;46.78;;;28.80;;
35909;SDS011;22004;49.120;-0.200;2023-05-21T07:30:13;68.07;;;34.50;;
35909;SDS011;22004;49.120;-0.200;2023-05-21T07:32:38;59.10;;;36.22;;
35909;SDS011;22004;49.120;-0.200;2023-05-21T07:35:04;59.85;;;33.05;;
35909;SDS011;22004;49.120;-0.200;2023-05-21T07:37:29;50.00;;;31.05;;
35909;SDS011;22004;49.120;-0.200;2023-05-21T07:39:55;50.83;;;30.33;;
35909;SDS011;22004;49.120;-0.200;2023-05-21T07:42:22;54.88;;;31.33;;
35909;SDS011;22004;49.120;-0.200;2023-05-21T07:44:48;59.47;;;34.08;;
35909;SDS011;22004;49.120;-0.200;2023-05-21T07:47:13;64.97;;;36.53;;
35909;SDS011;22004;49.120;-0.200;2023-05-21T07:49:39;63.38;;;34.88;;
35909;SDS011;22004;49.120;-0.200;2023-05-21T07:52:04;64.00;;;35.20;;
35909;SDS011;22004;49.120;-0.200;2023-05-21T07:54:30;55.60;;;33.20;;
35909;SDS011;22004;49.120;-0.200;2023-05-21T07:56:55;56.50;;;33.00;;
35909;SDS011;22004;49.120;-0.200;2023-05-21T07:59:21;56.08;;;34.25;;
35909;SDS011;22004;49.120;-0.200;2023-05-21T08:01:46;61.70;;;35.72;;
35909;SDS011;22004;49.120;-0.200;2023-05-21T08:04:11;84.88;;;43.67;;
35909;SDS011;22004;49.120;-0.200;2023-05-21T08:06:37;98.15;;;50.58;;
35909;SDS011;22004;49.120;-0.200;2023-05-21T08:09:02;62.03;;;35.70;;
35909;SDS011;22004;49.120;-0.200;2023-05-21T08:11:29;91.70;;;45.78;;
35909;SDS011;22004;49.120;-0.200;2023-05-21T08:13:55;59.72;;;33.85;;
35909;SDS011;22004;49.120;-0.200;2023-05-21T08:16:20;59.55;;;32.72;;
35909;SDS011;22004;49.120;-0.200;2023-05-21T08:18:47;54.85;;;32.47;;
35909;SDS011;22004;49.120;-0.200;2023-05-21T08:21:13;61.08;;;35.75;;
35909;SDS011;22004;49.120;-0.200;2023-05-21T08:23:38;83.20;;;41.00;;
35909;SDS011;22004;49.120;-0.200;2023-05-21T08:26:03;75.90;;;38.28;;
35909;SDS011;22004;49.120;-0.200;2023-05-21T08:28:29;73.05;;;38.53;;
35909;SDS011;22004;49.120;-0.200;2023-05-21T08:30:54;73.30;;;37.47;;
35909;SDS011;22004;49.120;-0.200;2023-05-21T08:33:20;70.22;;;37.55;;
35909;SDS011;22004;49.120;-0.200;2023-05-21T08:35:45;71.80;;;36.40;;
35909;SDS011;22004;49.120;-0.200;2023-05-21T08:38:11;62.55;;;34.08;;
35909;SDS011;22004;49.120;-0.200;2023-05-21T08:40:36;62.20;;;34.92;;
35909;SDS011;22004;49.120;-0.200;2023-05-21T08:43:02;63.28;;;36.60;;
35909;SDS011;22004;49.120;-0.200;2023-05-21T08:45:27;74.45;;;40.25;;
35909;SDS011;22004;49.120;-0.200;2023-05-21T08:48:02;69.95;;;40.15;;
35909;SDS011;22004;49.120;-0.200;2023-05-21T08:50:28;66.90;;;36.83;;
35909;SDS011;22004;49.120;-0.200;2023-05-21T08:52:55;79.57;;;40.28;;
35909;SDS011;22004;49.120;-0.200;2023-05-21T08:55:22;66.38;;;33.97;;
35909;SDS011;22004;49.120;-0.200;2023-05-21T08:57:48;64.68;;;34.53;;
35909;SDS011;22004;49.120;-0.200;2023-05-21T09:00:14;76.15;;;39.22;;
35909;SDS011;22004;49.120;-0.200;2023-05-21T09:02:40;78.70;;;40.50;;
35909;SDS011;22004;49.120;-0.200;2023-05-21T09:05:08;66.95;;;36.35;;
35909;SDS011;22004;49.120;-0.200;2023-05-21T09:07:38;70.50;;;37.22;;
35909;SDS011;22004;49.120;-0.200;2023-05-21T09:10:11;64.65;;;34.95;;
35909;SDS011;22004;49.120;-0.200;2023-05-21T09:12:37;71.03;;;38.25;;
35909;SDS011;22004;49.120;-0.200;2023-05-21T09:15:04;64.72;;;35.63;;
35909;SDS011;22004;49.120;-0.200;2023-05-21T09:17:30;70.70;;;35.50;;
35909;SDS011;22004;49.120;-0.200;2023-05-21T09:22:44;71.55;;;38.13;;
35909;SDS011;22004;49.120;-0.200;2023-05-21T09:25:11;70.43;;;33.63;;
35909;SDS011;22004;49.120;-0.200;2023-05-21T09:27:39;64.00;;;31.60;;
35909;SDS011;22004;49.120;-0.200;2023-05-21T09:30:14;66.82;;;30.90;;
35909;SDS011;22004;49.120;-0.200;2023-05-21T09:32:41;67.43;;;32.20;;
35909;SDS011;22004;49.120;-0.200;2023-05-21T09:35:09;73.30;;;30.67;;
35909;SDS011;22004;49.120;-0.200;2023-05-21T09:37:36;71.50;;;30.58;;
35909;SDS011;22004;49.120;-0.200;2023-05-21T09:42:40;68.03;;;32.60;;
35909;SDS011;22004;49.120;-0.200;2023-05-21T09:45:07;75.22;;;33.85;;
35909;SDS011;22004;49.120;-0.200;2023-05-21T09:47:37;58.35;;;30.23;;
35909;SDS011;22004;49.120;-0.200;2023-05-21T09:50:05;66.13;;;31.63;;
35909;SDS011;22004;49.120;-0.200;2023-05-21T09:52:31;69.05;;;30.92;;
35909;SDS011;22004;49.120;-0.200;2023-05-21T09:55:01;64.72;;;32.88;;
35909;SDS011;22004;49.120;-0.200;2023-05-21T09:57:27;70.15;;;35.28;;
35909;SDS011;22004;49.120;-0.200;2023-05-21T09:59:53;66.55;;;33.97;;
35909;SDS011;22004;49.120;-0.200;2023-05-21T10:02:19;80.15;;;35.70;;
35909;SDS011;22004;49.120;-0.200;2023-05-21T10:04:46;71.30;;;33.58;;
35909;SDS011;22004;49.120;-0.200;2023-05-21T10:07:14;75.55;;;32.97;;
35909;SDS011;22004;49.120;-0.200;2023-05-21T10:09:45;64.20;;;32.47;;
35909;SDS011;22004;49.120;-0.200;2023-05-21T10:12:13;68.78;;;32.97;;
35909;SDS011;22004;49.120;-0.200;2023-05-21T10:14:41;58.05;;;32.30;;
35909;SDS011;22004;49.120;-0.200;2023-05-21T10:17:10;68.80;;;33.58;;
35909;SDS011;22004;49.120;-0.200;2023-05-21T10:19:36;66.10;;;28.67;;
35909;SDS011;22004;49.120;-0.200;2023-05-21T10:22:03;58.90;;;26.88;;
35909;SDS011;22004;49.120;-0.200;2023-05-21T10:24:29;59.83;;;24.92;;
35909;SDS011;22004;49.120;-0.200;2023-05-21T10:26:56;65.90;;;23.75;;
35909;SDS011;22004;49.120;-0.200;2023-05-21T10:29:21;57.90;;;24.85;;
35909;SDS011;22004;49.120;-0.200;2023-05-21T10:31:47;67.63;;;25.13;;
35909;SDS011;22004;49.120;-0.200;2023-05-21T10:34:14;60.40;;;25.55;;
35909;SDS011;22004;49.120;-0.200;2023-05-21T10:36:40;58.92;;;25.42;;
35909;SDS011;22004;49.120;-0.200;2023-05-21T10:39:07;70.05;;;24.92;;
35909;SDS011;22004;49.120;-0.200;2023-05-21T10:41:42;56.92;;;25.83;;
35909;SDS011;22004;49.120;-0.200;2023-05-21T10:47:42;57.85;;;23.35;;
35909;SDS011;22004;49.120;-0.200;2023-05-21T10:50:28;55.53;;;23.65;;
35909;SDS011;22004;49.120;-0.200;2023-05-21T10:53:21;56.85;;;20.73;;
35909;SDS011;22004;49.120;-0.200;2023-05-21T10:55:58;50.67;;;21.10;;
35909;SDS011;22004;49.120;-0.200;2023-05-21T11:01:28;50.63;;;19.33;;
35909;SDS011;22004;49.120;-0.200;2023-05-21T11:04:00;56.78;;;21.00;;
35909;SDS011;22004;49.120;-0.200;2023-05-21T11:06:26;59.03;;;20.42;;
35909;SDS011;22004;49.120;-0.200;2023-05-21T11:08:52;60.97;;;20.38;;
35909;SDS011;22004;49.120;-0.200;2023-05-21T11:14:24;48.42;;;19.25;;
35909;SDS011;22004;49.120;-0.200;2023-05-21T11:17:00;55.25;;;21.13;;
35909;SDS011;22004;49.120;-0.200;2023-05-21T11:19:33;53.85;;;20.52;;
35909;SDS011;22004;49.120;-0.200;2023-05-21T11:21:59;48.42;;;18.83;;
35909;SDS011;22004;49.120;-0.200;2023-05-21T11:24:25;55.53;;;20.10;;
35909;SDS011;22004;49.120;-0.200;2023-05-21T11:29:34;47.78;;;17.45;;
35909;SDS011;22004;49.120;-0.200;2023-05-21T11:32:05;51.85;;;18.50;;
35909;SDS011;22004;49.120;-0.200;2023-05-21T11:39:45;50.22;;;17.27;;
35909;SDS011;22004;49.120;-0.200;2023-05-21T11:42:12;49.83;;;17.52;;
35909;SDS011;22004;49.120;-0.200;2023-05-21T11:47:10;41.78;;;16.52;;
35909;SDS011;22004;49.120;-0.200;2023-05-21T11:49:37;44.65;;;17.30;;
35909;SDS011;22004;49.120;-0.200;2023-05-21T11:52:04;35.83;;;15.10;;
35909;SDS011;22004;49.120;-0.200;2023-05-21T11:54:31;41.97;;;16.05;;
35909;SDS011;22004;49.120;-0.200;2023-05-21T11:57:01;50.30;;;15.70;;
35909;SDS011;22004;49.120;-0.200;2023-05-21T11:59:29;34.08;;;14.25;;
35909;SDS011;22004;49.120;-0.200;2023-05-21T12:01:57;35.85;;;14.55;;
35909;SDS011;22004;49.120;-0.200;2023-05-21T12:04:23;42.67;;;15.57;;
35909;SDS011;22004;49.120;-0.200;2023-05-21T12:06:54;43.40;;;16.15;;
35909;SDS011;22004;49.120;-0.200;2023-05-21T12:09:19;46.47;;;16.75;;
35909;SDS011;22004;49.120;-0.200;2023-05-21T12:11:45;47.33;;;15.48;;
35909;SDS011;22004;49.120;-0.200;2023-05-21T12:14:10;44.75;;;15.00;;
35909;SDS011;22004;49.120;-0.200;2023-05-21T12:16:36;46.78;;;14.55;;
35909;SDS011;22004;49.120;-0.200;2023-05-21T12:19:02;42.50;;;14.75;;
35909;SDS011;22004;49.120;-0.200;2023-05-21T12:21:28;34.15;;;13.73;;
35909;SDS011;22004;49.120;-0.200;2023-05-21T12:23:54;39.97;;;14.48;;
35909;SDS011;22004;49.120;-0.200;2023-05-21T12:26:20;36.65;;;14.10;;
35909;SDS011;22004;49.120;-0.200;2023-05-21T12:28:49;36.28;;;12.68;;
35909;SDS011;22004;49.120;-0.200;2023-05-21T12:31:18;36.72;;;14.60;;
35909;SDS011;22004;49.120;-0.200;2023-05-21T12:33:47;33.15;;;13.10;;
35909;SDS011;22004;49.120;-0.200;2023-05-21T12:36:33;35.70;;;12.65;;
35909;SDS011;22004;49.120;-0.200;2023-05-21T12:38:58;33.55;;;12.27;;
35909;SDS011;22004;49.120;-0.200;2023-05-21T12:41:24;41.85;;;12.20;;
35909;SDS011;22004;49.120;-0.200;2023-05-21T12:43:50;40.15;;;12.60;;
35909;SDS011;22004;49.120;-0.200;2023-05-21T12:46:16;36.17;;;12.40;;
35909;SDS011;22004;49.120;-0.200;2023-05-21T12:48:49;42.10;;;13.52;;
35909;SDS011;22004;49.120;-0.200;2023-05-21T12:51:17;39.03;;;12.50;;
35909;SDS011;22004;49.120;-0.200;2023-05-21T12:53:44;32.65;;;10.68;;
35909;SDS011;22004;49.120;-0.200;2023-05-21T12:56:10;34.13;;;11.50;;
35909;SDS011;22004;49.120;-0.200;2023-05-21T12:58:36;33.28;;;11.23;;
35909;SDS011;22004;49.120;-0.200;2023-05-21T13:01:05;41.50;;;11.38;;
35909;SDS011;22004;49.120;-0.200;2023-05-21T13:03:32;28.15;;;9.57;;
35909;SDS011;22004;49.120;-0.200;2023-05-21T13:05:58;36.50;;;11.43;;
35909;SDS011;22004;49.120;-0.200;2023-05-21T13:08:23;35.78;;;10.65;;
35909;SDS011;22004;49.120;-0.200;2023-05-21T13:10:49;29.13;;;10.63;;
35909;SDS011;22004;49.120;-0.200;2023-05-21T13:13:14;29.38;;;9.40;;
35909;SDS011;22004;49.120;-0.200;2023-05-21T13:15:39;34.65;;;10.32;;
35909;SDS011;22004;49.120;-0.200;2023-05-21T13:18:05;35.67;;;10.32;;
35909;SDS011;22004;49.120;-0.200;2023-05-21T13:20:30;38.58;;;9.75;;
35909;SDS011;22004;49.120;-0.200;2023-05-21T13:22:56;25.88;;;9.20;;
35909;SDS011;22004;49.120;-0.200;2023-05-21T13:25:22;31.15;;;9.68;;
35909;SDS011;22004;49.120;-0.200;2023-05-21T13:27:50;26.63;;;8.88;;
35909;SDS011;22004;49.120;-0.200;2023-05-21T13:30:16;36.05;;;9.65;;
35909;SDS011;22004;49.120;-0.200;2023-05-21T13:32:42;28.23;;;8.48;;
35909;SDS011;22004;49.120;-0.200;2023-05-21T13:35:09;32.10;;;9.93;;
35909;SDS011;22004;49.120;-0.200;2023-05-21T13:37:36;32.13;;;9.10;;
35909;SDS011;22004;49.120;-0.200;2023-05-21T13:40:03;27.40;;;7.75;;
35909;SDS011;22004;49.120;-0.200;2023-05-21T13:42:35;32.22;;;9.60;;
35909;SDS011;22004;49.120;-0.200;2023-05-21T13:45:02;27.05;;;9.13;;
35909;SDS011;22004;49.120;-0.200;2023-05-21T13:47:31;28.35;;;8.88;;
35909;SDS011;22004;49.120;-0.200;2023-05-21T13:49:57;31.80;;;8.70;;
35909;SDS011;22004;49.120;-0.200;2023-05-21T13:52:23;34.15;;;9.68;;
35909;SDS011;22004;49.120;-0.200;2023-05-21T13:54:48;35.35;;;9.68;;
35909;SDS011;22004;49.120;-0.200;2023-05-21T13:57:14;28.77;;;8.18;;
35909;SDS011;22004;49.120;-0.200;2023-05-21T13:59:39;30.85;;;8.30;;
35909;SDS011;22004;49.120;-0.200;2023-05-21T14:02:05;38.72;;;9.13;;
35909;SDS011;22004;49.120;-0.200;2023-05-21T14:04:32;26.83;;;8.95;;
35909;SDS011;22004;49.120;-0.200;2023-05-21T14:06:58;38.10;;;8.82;;
35909;SDS011;22004;49.120;-0.200;2023-05-21T14:09:23;29.65;;;8.35;;
35909;SDS011;22004;49.120;-0.200;2023-05-21T14:11:51;39.90;;;9.40;;
35909;SDS011;22004;49.120;-0.200;2023-05-21T14:14:16;22.15;;;7.82;;
35909;SDS011;22004;49.120;-0.200;2023-05-21T14:16:44;29.75;;;7.93;;
35909;SDS011;22004;49.120;-0.200;2023-05-21T14:19:11;31.92;;;8.38;;
35909;SDS011;22004;49.120;-0.200;2023-05-21T14:21:36;34.83;;;9.55;;
35909;SDS011;22004;49.120;-0.200;2023-05-21T14:24:01;30.70;;;8.50;;
35909;SDS011;22004;49.120;-0.200;2023-05-21T14:26:27;24.48;;;7.93;;
35909;SDS011;22004;49.120;-0.200;2023-05-21T14:28:53;23.77;;;7.32;;
35909;SDS011;22004;49.120;-0.200;2023-05-21T14:31:18;21.67;;;7.75;;
35909;SDS011;22004;49.120;-0.200;2023-05-21T14:33:45;26.23;;;7.78;;
35909;SDS011;22004;49.120;-0.200;2023-05-21T14:36:11;28.13;;;8.40;;
35909;SDS011;22004;49.120;-0.200;2023-05-21T14:38:36;30.77;;;8.40;;
35909;SDS011;22004;49.120;-0.200;2023-05-21T14:41:02;26.10;;;8.05;;